Antioch, South Carolina
Current Conditions -  °F | °C
As of 9:35 AM on Wednesday 28 Jan 2015 (Local Time) from KCDN Reporting Station
Clear Clear  
Wind Chill: -5°   Ceiling: Unl
Heat Index:   Visibility: 10mi
Dew Point: -10°   Wind: 12mph
Humidity: 47%   Direction: 360°N
Pressure: 30.28"   Gusts: NA
Location:  34.2974°N, 80.6089°W
Report Text: KCDN 281435Z AUTO 36010KT 10SM CLR 00/M10 A3028 RMK AO2 TSNO
Loading
Personal Weather Stations






























Interactive Weather Map New forecast layout! Learn more

10-Day Weather Forecast

Advertisements
Track Severe Weather on mobile